createdAt,value
2022-12-11T00:00:07.778Z,270
2022-12-11T00:01:07.791Z,270
2022-12-11T00:02:07.835Z,270
2022-12-11T00:03:11.439Z,270
2022-12-11T00:04:07.776Z,270
2022-12-11T00:05:07.916Z,270
2022-12-11T00:06:07.786Z,292
2022-12-11T00:07:07.810Z,292
2022-12-11T00:08:07.852Z,292
2022-12-11T00:09:07.785Z,338
2022-12-11T00:10:07.789Z,315
2022-12-11T00:11:07.809Z,315
2022-12-11T00:12:07.807Z,315
2022-12-11T00:13:07.808Z,338
2022-12-11T00:14:07.810Z,315
2022-12-11T00:15:08.351Z,315
2022-12-11T00:16:07.792Z,315
2022-12-11T00:17:07.837Z,315
2022-12-11T00:18:07.811Z,315
2022-12-11T00:19:07.812Z,315
2022-12-11T00:20:07.801Z,338
2022-12-11T00:21:07.790Z,338
2022-12-11T00:22:07.820Z,338
2022-12-11T00:23:07.806Z,315
2022-12-11T00:24:07.800Z,45
2022-12-11T00:25:08.088Z,22
2022-12-11T00:26:07.806Z,22
2022-12-11T00:27:07.823Z,22
2022-12-11T00:28:07.822Z,315
2022-12-11T00:29:07.798Z,315
2022-12-11T00:30:07.807Z,315
2022-12-11T00:31:07.833Z,315
2022-12-11T00:32:07.875Z,315
2022-12-11T00:33:07.815Z,292
2022-12-11T00:34:07.820Z,292
2022-12-11T00:35:08.220Z,315
2022-12-11T00:36:07.800Z,292
2022-12-11T00:37:07.819Z,292
2022-12-11T00:38:07.821Z,292
2022-12-11T00:39:07.804Z,315
2022-12-11T00:40:07.792Z,315
2022-12-11T00:41:07.798Z,292
2022-12-11T00:42:07.813Z,292
2022-12-11T00:43:08.043Z,292
2022-12-11T00:44:07.795Z,292
2022-12-11T00:45:08.016Z,292
2022-12-11T00:46:07.876Z,292
2022-12-11T00:47:07.803Z,315
2022-12-11T00:48:07.832Z,315
2022-12-11T00:49:07.804Z,315
2022-12-11T00:50:07.816Z,315
2022-12-11T00:51:07.817Z,315
2022-12-11T00:52:07.818Z,315
2022-12-11T00:53:07.854Z,315
2022-12-11T00:54:07.825Z,315
2022-12-11T00:55:07.964Z,315
2022-12-11T00:56:07.832Z,315
2022-12-11T00:57:07.810Z,315
2022-12-11T00:58:07.853Z,315
2022-12-11T00:59:07.841Z,315
2022-12-11T01:00:07.825Z,315
2022-12-11T01:01:07.914Z,315
2022-12-11T01:02:07.852Z,315
2022-12-11T01:03:07.929Z,315
2022-12-11T01:04:07.827Z,315
2022-12-11T01:05:08.013Z,315
2022-12-11T01:06:07.964Z,315
2022-12-11T01:07:07.827Z,315
2022-12-11T01:08:07.897Z,315
2022-12-11T01:09:07.825Z,315
2022-12-11T01:10:07.839Z,315
2022-12-11T01:11:07.848Z,315
2022-12-11T01:12:07.833Z,315
2022-12-11T01:13:07.903Z,315
2022-12-11T01:14:07.840Z,315
2022-12-11T01:15:08.265Z,315
2022-12-11T01:16:07.850Z,315
2022-12-11T01:17:07.863Z,315
2022-12-11T01:18:07.853Z,315
2022-12-11T01:19:07.833Z,315
2022-12-11T01:20:07.914Z,315
2022-12-11T01:21:07.852Z,315
2022-12-11T01:22:07.821Z,315
2022-12-11T01:23:07.845Z,315
2022-12-11T01:24:07.824Z,315
2022-12-11T01:25:07.917Z,315
2022-12-11T01:26:07.827Z,315
2022-12-11T01:27:07.914Z,315
2022-12-11T01:28:07.857Z,315
2022-12-11T01:29:07.823Z,315
2022-12-11T01:30:07.856Z,315
2022-12-11T01:31:07.917Z,315
2022-12-11T01:32:07.838Z,315
2022-12-11T01:33:07.838Z,315
2022-12-11T01:34:07.859Z,315
2022-12-11T01:35:08.137Z,315
2022-12-11T01:36:07.832Z,315
2022-12-11T01:37:07.844Z,315
2022-12-11T01:38:07.852Z,315
2022-12-11T01:39:07.841Z,315
2022-12-11T01:40:07.858Z,315
2022-12-11T01:41:07.848Z,315
2022-12-11T01:42:07.850Z,315
2022-12-11T01:43:07.874Z,315
2022-12-11T01:44:07.855Z,315
2022-12-11T01:45:08.016Z,315
2022-12-11T01:46:07.883Z,315
2022-12-11T01:47:07.873Z,315
2022-12-11T01:48:07.863Z,315
2022-12-11T01:49:07.851Z,315
2022-12-11T01:50:07.848Z,315
2022-12-11T01:51:07.849Z,315
2022-12-11T01:52:07.850Z,315
2022-12-11T01:53:07.871Z,315
2022-12-11T01:54:07.849Z,315
2022-12-11T01:55:08.055Z,315
2022-12-11T01:56:07.863Z,315
2022-12-11T01:57:07.854Z,315
2022-12-11T01:58:07.868Z,315
2022-12-11T01:59:07.845Z,315
2022-12-11T02:00:07.871Z,315
2022-12-11T02:01:07.882Z,315
2022-12-11T02:02:07.989Z,315
2022-12-11T02:03:07.900Z,315
2022-12-11T02:04:07.858Z,315
2022-12-11T02:05:08.179Z,315
2022-12-11T02:06:07.881Z,315
2022-12-11T02:07:07.856Z,315
2022-12-11T02:08:07.906Z,315
2022-12-11T02:09:07.943Z,315
2022-12-11T02:10:07.850Z,315
2022-12-11T02:11:07.863Z,315
2022-12-11T02:12:07.910Z,315
2022-12-11T02:13:08.011Z,315
2022-12-11T02:14:07.855Z,315
2022-12-11T02:15:08.043Z,315
2022-12-11T02:16:07.898Z,315
2022-12-11T02:17:07.859Z,315
2022-12-11T02:18:07.875Z,315
2022-12-11T02:19:07.873Z,315
2022-12-11T02:20:07.857Z,315
2022-12-11T02:21:07.862Z,315
2022-12-11T02:22:07.861Z,315
2022-12-11T02:23:07.869Z,315
2022-12-11T02:24:07.866Z,315
2022-12-11T02:25:08.034Z,292
2022-12-11T02:26:07.860Z,292
2022-12-11T02:27:07.871Z,292
2022-12-11T02:28:07.871Z,292
2022-12-11T02:29:07.863Z,292
2022-12-11T02:30:07.863Z,292
2022-12-11T02:31:07.921Z,292
2022-12-11T02:32:07.886Z,292
2022-12-11T02:33:07.872Z,292
2022-12-11T02:34:07.872Z,292
2022-12-11T02:35:08.056Z,292
2022-12-11T02:36:07.855Z,292
2022-12-11T02:37:07.877Z,292
2022-12-11T02:38:07.881Z,292
2022-12-11T02:39:07.858Z,292
2022-12-11T02:40:07.868Z,292
2022-12-11T02:41:07.880Z,292
2022-12-11T02:42:07.861Z,292
2022-12-11T02:43:07.865Z,292
2022-12-11T02:44:07.878Z,292
2022-12-11T02:45:08.037Z,292
2022-12-11T02:46:08.027Z,292
2022-12-11T02:47:07.924Z,292
2022-12-11T02:48:07.914Z,292
2022-12-11T02:49:07.912Z,292
2022-12-11T02:50:07.932Z,292
2022-12-11T02:51:07.932Z,292
2022-12-11T02:52:07.917Z,292
2022-12-11T02:53:07.957Z,292
2022-12-11T02:54:07.923Z,292
2022-12-11T02:55:08.123Z,292
2022-12-11T02:56:07.919Z,292
2022-12-11T02:57:07.932Z,292
2022-12-11T02:58:07.943Z,292
2022-12-11T02:59:07.928Z,292
2022-12-11T03:00:07.935Z,292
2022-12-11T03:01:07.983Z,292
2022-12-11T03:02:07.980Z,292
2022-12-11T03:03:07.933Z,292
2022-12-11T03:04:07.941Z,292
2022-12-11T03:05:08.131Z,292
2022-12-11T03:06:07.936Z,292
2022-12-11T03:07:07.960Z,292
2022-12-11T03:08:07.998Z,292
2022-12-11T03:09:07.960Z,292
2022-12-11T03:10:07.937Z,292
2022-12-11T03:11:07.958Z,292
2022-12-11T03:12:07.943Z,292
2022-12-11T03:13:07.987Z,292
2022-12-11T03:14:07.943Z,292
2022-12-11T03:15:08.256Z,292
2022-12-11T03:16:07.963Z,292
2022-12-11T03:17:07.983Z,292
2022-12-11T03:18:07.993Z,292
2022-12-11T03:19:07.971Z,292
2022-12-11T03:20:07.983Z,292
2022-12-11T03:21:07.982Z,292
2022-12-11T03:22:07.982Z,292
2022-12-11T03:23:08.007Z,292
2022-12-11T03:24:07.985Z,292
2022-12-11T03:25:08.391Z,292
2022-12-11T03:26:07.989Z,292
2022-12-11T03:27:11.090Z,292
2022-12-11T03:28:08.008Z,292
2022-12-11T03:29:07.998Z,292
2022-12-11T03:30:07.983Z,292
2022-12-11T03:31:08.025Z,292
2022-12-11T03:32:08.152Z,292
2022-12-11T03:33:08.060Z,292
2022-12-11T03:34:07.983Z,292
2022-12-11T03:35:07.988Z,292
2022-12-11T03:36:07.988Z,292
2022-12-11T03:37:07.989Z,292
2022-12-11T03:38:07.998Z,292
2022-12-11T03:39:08.019Z,292
2022-12-11T03:40:08.020Z,292
2022-12-11T03:41:07.997Z,292
2022-12-11T03:42:08.002Z,292
2022-12-11T03:43:08.028Z,292
2022-12-11T03:44:08.017Z,292
2022-12-11T03:45:08.256Z,292
2022-12-11T03:46:08.043Z,292
2022-12-11T03:47:08.036Z,292
2022-12-11T03:48:08.018Z,292
2022-12-11T03:49:08.027Z,292
2022-12-11T03:50:08.021Z,292
2022-12-11T03:51:08.020Z,292
2022-12-11T03:52:08.011Z,292
2022-12-11T03:53:08.021Z,292
2022-12-11T03:54:08.014Z,292
2022-12-11T03:55:08.332Z,292
2022-12-11T03:56:08.024Z,292
2022-12-11T03:57:08.007Z,292
2022-12-11T03:58:08.022Z,292
2022-12-11T03:59:08.024Z,292
2022-12-11T04:00:08.029Z,292
2022-12-11T04:01:08.020Z,292
2022-12-11T04:02:08.045Z,292
2022-12-11T04:03:12.862Z,292
2022-12-11T04:04:08.307Z,292
2022-12-11T04:05:08.245Z,292
2022-12-11T04:06:08.024Z,292
2022-12-11T04:07:08.049Z,292
2022-12-11T04:08:08.096Z,292
2022-12-11T04:09:08.040Z,292
2022-12-11T04:10:08.053Z,292
2022-12-11T04:11:08.101Z,292
2022-12-11T04:12:08.097Z,292
2022-12-11T04:13:08.120Z,292
2022-12-11T04:14:08.113Z,292
2022-12-11T04:15:08.393Z,292
2022-12-11T04:16:08.288Z,292
2022-12-11T04:17:08.320Z,292
2022-12-11T04:18:08.267Z,292
2022-12-11T04:19:08.306Z,292
2022-12-11T04:20:08.265Z,292
2022-12-11T04:21:08.346Z,292
2022-12-11T04:22:08.286Z,292
2022-12-11T04:23:08.352Z,292
2022-12-11T04:24:08.300Z,292
2022-12-11T04:25:08.465Z,292
2022-12-11T04:26:08.308Z,292
2022-12-11T04:27:08.529Z,292
2022-12-11T04:28:08.320Z,292
2022-12-11T04:29:08.310Z,292
2022-12-11T04:30:08.311Z,292
2022-12-11T04:31:08.366Z,292
2022-12-11T04:32:08.303Z,292
2022-12-11T04:33:08.320Z,292
2022-12-11T04:34:08.269Z,292
2022-12-11T04:35:08.542Z,292
2022-12-11T04:36:08.326Z,292
2022-12-11T04:37:08.317Z,292
2022-12-11T04:38:08.323Z,292
2022-12-11T04:39:08.439Z,292
2022-12-11T04:40:08.436Z,292
2022-12-11T04:41:08.398Z,292
2022-12-11T04:42:08.416Z,292
2022-12-11T04:43:08.527Z,292
2022-12-11T04:44:08.459Z,292
2022-12-11T04:45:08.759Z,292
2022-12-11T04:46:08.481Z,292
2022-12-11T04:47:08.473Z,292
2022-12-11T04:48:08.459Z,292
2022-12-11T04:49:08.486Z,292
2022-12-11T04:50:08.440Z,292
2022-12-11T04:51:08.484Z,292
2022-12-11T04:52:08.450Z,292
2022-12-11T04:53:08.478Z,292
2022-12-11T04:54:08.471Z,292
2022-12-11T04:55:08.770Z,292
2022-12-11T04:56:08.461Z,292
2022-12-11T04:57:08.475Z,292
2022-12-11T04:58:08.486Z,292
2022-12-11T04:59:08.498Z,292
2022-12-11T05:00:08.494Z,292
2022-12-11T05:01:08.414Z,292
2022-12-11T05:02:08.450Z,292
2022-12-11T05:03:08.502Z,292
2022-12-11T05:04:08.465Z,292
2022-12-11T05:05:08.684Z,292
2022-12-11T05:06:08.434Z,292
2022-12-11T05:07:08.441Z,292
2022-12-11T05:08:08.490Z,292
2022-12-11T05:09:08.451Z,292
2022-12-11T05:10:08.440Z,292
2022-12-11T05:11:08.441Z,292
2022-12-11T05:12:08.440Z,292
2022-12-11T05:13:08.485Z,292
2022-12-11T05:14:08.470Z,292
2022-12-11T05:15:08.838Z,292
2022-12-11T05:16:08.529Z,292
2022-12-11T05:17:08.511Z,292
2022-12-11T05:18:08.516Z,292
2022-12-11T05:19:08.506Z,292
2022-12-11T05:20:08.503Z,292
2022-12-11T05:21:08.444Z,292
2022-12-11T05:22:08.464Z,292
2022-12-11T05:23:08.501Z,292
2022-12-11T05:24:08.456Z,292
2022-12-11T05:25:08.789Z,292
2022-12-11T05:26:08.494Z,292
2022-12-11T05:27:08.472Z,292
2022-12-11T05:28:08.461Z,292
2022-12-11T05:29:08.457Z,292
2022-12-11T05:30:08.506Z,292
2022-12-11T05:31:08.686Z,292
2022-12-11T05:32:08.498Z,292
2022-12-11T05:33:08.486Z,292
2022-12-11T05:34:08.653Z,292
2022-12-11T05:35:08.783Z,292
2022-12-11T05:36:08.482Z,292
2022-12-11T05:37:08.533Z,292
2022-12-11T05:38:08.539Z,292
2022-12-11T05:39:08.494Z,292
2022-12-11T05:40:08.485Z,292
2022-12-11T05:41:08.489Z,292
2022-12-11T05:42:08.497Z,292
2022-12-11T05:43:08.495Z,292
2022-12-11T05:44:08.456Z,292
2022-12-11T05:45:08.698Z,292
2022-12-11T05:46:08.598Z,292
2022-12-11T05:47:08.592Z,292
2022-12-11T05:48:08.503Z,292
2022-12-11T05:49:08.490Z,292
2022-12-11T05:50:08.484Z,292
2022-12-11T05:51:08.505Z,292
2022-12-11T05:52:08.488Z,292
2022-12-11T05:53:08.488Z,292
2022-12-11T05:54:08.454Z,292
2022-12-11T05:55:08.616Z,292
2022-12-11T05:56:08.492Z,292
2022-12-11T05:57:08.455Z,292
2022-12-11T05:58:08.494Z,292
2022-12-11T05:59:08.493Z,292
2022-12-11T06:00:08.488Z,292
2022-12-11T06:01:08.486Z,292
2022-12-11T06:02:08.594Z,292
2022-12-11T06:03:13.938Z,292
2022-12-11T06:04:08.536Z,292
2022-12-11T06:05:08.758Z,292
2022-12-11T06:06:08.564Z,292
2022-12-11T06:07:08.516Z,292
2022-12-11T06:08:08.569Z,292
2022-12-11T06:09:08.501Z,292
2022-12-11T06:10:08.517Z,292
2022-12-11T06:11:08.510Z,292
2022-12-11T06:12:08.509Z,292
2022-12-11T06:13:08.556Z,292
2022-12-11T06:14:08.518Z,292
2022-12-11T06:15:08.687Z,292
2022-12-11T06:16:08.606Z,292
2022-12-11T06:17:08.500Z,292
2022-12-11T06:18:08.532Z,292
2022-12-11T06:19:08.508Z,292
2022-12-11T06:20:08.585Z,292
2022-12-11T06:21:08.510Z,292
2022-12-11T06:22:08.518Z,292
2022-12-11T06:23:08.514Z,292
2022-12-11T06:24:08.512Z,292
2022-12-11T06:25:08.625Z,315
2022-12-11T06:26:08.537Z,315
2022-12-11T06:27:08.527Z,315
2022-12-11T06:28:08.517Z,45
2022-12-11T06:29:12.436Z,68
2022-12-11T06:30:08.528Z,68
2022-12-11T06:31:08.548Z,68
2022-12-11T06:32:08.510Z,68
2022-12-11T06:33:08.512Z,68
2022-12-11T06:34:08.564Z,68
2022-12-11T06:35:08.854Z,68
2022-12-11T06:36:08.537Z,68
2022-12-11T06:37:08.511Z,68
2022-12-11T06:38:08.524Z,68
2022-12-11T06:39:08.512Z,68
2022-12-11T06:40:08.513Z,68
2022-12-11T06:41:08.545Z,68
2022-12-11T06:42:08.517Z,68
2022-12-11T06:43:08.562Z,68
2022-12-11T06:44:08.519Z,68
2022-12-11T06:45:08.775Z,68
2022-12-11T06:46:08.652Z,68
2022-12-11T06:47:08.521Z,68
2022-12-11T06:48:08.603Z,68
2022-12-11T06:49:08.523Z,68
2022-12-11T06:50:08.535Z,68
2022-12-11T06:51:08.524Z,68
2022-12-11T06:52:10.705Z,68
2022-12-11T06:53:08.901Z,68
2022-12-11T06:54:08.591Z,68
2022-12-11T06:55:08.843Z,68
2022-12-11T06:56:08.559Z,68
2022-12-11T06:57:08.549Z,68
2022-12-11T06:58:08.559Z,68
2022-12-11T06:59:08.534Z,68
2022-12-11T07:00:08.584Z,68
2022-12-11T07:01:08.593Z,68
2022-12-11T07:02:08.630Z,68
2022-12-11T07:03:08.635Z,68
2022-12-11T07:04:08.556Z,68
2022-12-11T07:05:08.788Z,68
2022-12-11T07:06:08.540Z,68
2022-12-11T07:07:08.535Z,68
2022-12-11T07:08:08.636Z,68
2022-12-11T07:09:08.579Z,68
2022-12-11T07:10:08.887Z,68
2022-12-11T07:11:08.548Z,68
2022-12-11T07:12:08.537Z,68
2022-12-11T07:13:08.576Z,68
2022-12-11T07:14:08.542Z,68
2022-12-11T07:15:08.819Z,68
2022-12-11T07:16:08.566Z,68
2022-12-11T07:17:08.557Z,68
2022-12-11T07:18:08.593Z,68
2022-12-11T07:19:08.552Z,68
2022-12-11T07:20:08.541Z,225
2022-12-11T07:21:08.631Z,158
2022-12-11T07:22:08.674Z,180
2022-12-11T07:23:08.578Z,180
2022-12-11T07:24:08.613Z,180
2022-12-11T07:25:08.792Z,180
2022-12-11T07:26:08.592Z,180
2022-12-11T07:27:08.562Z,180
2022-12-11T07:28:10.123Z,180
2022-12-11T07:29:08.556Z,180
2022-12-11T07:30:08.619Z,180
2022-12-11T07:31:08.575Z,180
2022-12-11T07:32:08.710Z,180
2022-12-11T07:33:08.616Z,180
2022-12-11T07:34:08.563Z,180
2022-12-11T07:35:08.694Z,180
2022-12-11T07:36:08.568Z,180
2022-12-11T07:37:08.558Z,180
2022-12-11T07:38:08.603Z,180
2022-12-11T07:39:08.564Z,180
2022-12-11T07:40:08.646Z,180
2022-12-11T07:41:08.573Z,180
2022-12-11T07:42:08.568Z,158
2022-12-11T07:43:08.625Z,158
2022-12-11T07:44:08.581Z,158
2022-12-11T07:45:09.053Z,158
2022-12-11T07:46:08.726Z,158
2022-12-11T07:47:08.595Z,158
2022-12-11T07:48:08.660Z,158
2022-12-11T07:49:08.637Z,158
2022-12-11T07:50:08.650Z,68
2022-12-11T07:51:08.601Z,68
2022-12-11T07:52:08.603Z,22
2022-12-11T07:53:08.634Z,22
2022-12-11T07:54:08.604Z,22
2022-12-11T07:55:08.911Z,22
2022-12-11T07:56:08.670Z,0
2022-12-11T07:57:14.041Z,0
2022-12-11T07:58:08.675Z,0
2022-12-11T07:59:08.659Z,0
2022-12-11T08:00:08.665Z,22
2022-12-11T08:01:08.689Z,22
2022-12-11T08:02:08.677Z,22
2022-12-11T08:03:08.632Z,22
2022-12-11T08:04:08.637Z,45
2022-12-11T08:05:08.903Z,0
2022-12-11T08:06:08.634Z,0
2022-12-11T08:07:08.628Z,0
2022-12-11T08:08:08.704Z,0
2022-12-11T08:09:08.641Z,0
2022-12-11T08:10:08.658Z,0
2022-12-11T08:11:08.641Z,0
2022-12-11T08:12:08.652Z,0
2022-12-11T08:13:08.681Z,0
2022-12-11T08:14:08.636Z,0
2022-12-11T08:15:08.941Z,0
2022-12-11T08:16:08.643Z,0
2022-12-11T08:17:08.631Z,0
2022-12-11T08:18:08.930Z,0
2022-12-11T08:19:08.640Z,0
2022-12-11T08:20:08.685Z,0
2022-12-11T08:21:08.643Z,0
2022-12-11T08:22:08.641Z,0
2022-12-11T08:23:08.697Z,0
2022-12-11T08:24:08.649Z,45
2022-12-11T08:25:08.874Z,45
2022-12-11T08:26:08.691Z,45
2022-12-11T08:27:08.648Z,45
2022-12-11T08:28:08.715Z,45
2022-12-11T08:29:08.648Z,0
2022-12-11T08:30:08.690Z,0
2022-12-11T08:31:08.765Z,0
2022-12-11T08:32:12.208Z,0
2022-12-11T08:33:08.694Z,0
2022-12-11T08:34:08.693Z,0
2022-12-11T08:35:08.854Z,0
2022-12-11T08:36:08.689Z,0
2022-12-11T08:37:08.704Z,0
2022-12-11T08:38:08.694Z,0
2022-12-11T08:39:08.714Z,0
2022-12-11T08:40:08.725Z,0
2022-12-11T08:41:08.716Z,0
2022-12-11T08:42:08.721Z,0
2022-12-11T08:43:08.719Z,0
2022-12-11T08:44:12.982Z,0
2022-12-11T08:45:08.810Z,0
2022-12-11T08:46:08.727Z,0
2022-12-11T08:47:08.675Z,0
2022-12-11T08:48:08.721Z,0
2022-12-11T08:49:08.721Z,0
2022-12-11T08:50:08.681Z,0
2022-12-11T08:51:08.727Z,292
2022-12-11T08:52:08.738Z,292
2022-12-11T08:53:08.734Z,292
2022-12-11T08:54:08.703Z,292
2022-12-11T08:55:08.874Z,292
2022-12-11T08:56:08.696Z,292
2022-12-11T08:57:08.696Z,292
2022-12-11T08:58:08.725Z,292
2022-12-11T08:59:08.790Z,292
2022-12-11T09:00:08.808Z,292
2022-12-11T09:01:08.873Z,292
2022-12-11T09:02:08.755Z,292
2022-12-11T09:03:12.742Z,292
2022-12-11T09:04:08.791Z,292
2022-12-11T09:05:09.027Z,292
2022-12-11T09:06:08.747Z,292
2022-12-11T09:07:08.747Z,270
2022-12-11T09:08:08.840Z,270
2022-12-11T09:09:08.742Z,270
2022-12-11T09:10:08.749Z,292
2022-12-11T09:11:08.751Z,292
2022-12-11T09:12:08.843Z,292
2022-12-11T09:13:08.788Z,292
2022-12-11T09:14:08.750Z,292
2022-12-11T09:15:09.228Z,292
2022-12-11T09:16:08.866Z,315
2022-12-11T09:17:08.761Z,292
2022-12-11T09:18:08.796Z,270
2022-12-11T09:19:08.802Z,292
2022-12-11T09:20:08.762Z,270
2022-12-11T09:21:08.762Z,270
2022-12-11T09:22:08.762Z,248
2022-12-11T09:23:08.763Z,248
2022-12-11T09:24:08.808Z,270
2022-12-11T09:25:09.102Z,270
2022-12-11T09:26:08.832Z,270
2022-12-11T09:27:08.776Z,270
2022-12-11T09:28:08.804Z,292
2022-12-11T09:29:08.816Z,292
2022-12-11T09:30:08.821Z,315
2022-12-11T09:31:08.871Z,292
2022-12-11T09:32:08.800Z,315
2022-12-11T09:33:08.856Z,315
2022-12-11T09:34:08.791Z,315
2022-12-11T09:35:09.052Z,315
2022-12-11T09:36:08.778Z,338
2022-12-11T09:37:08.775Z,338
2022-12-11T09:38:08.846Z,315
2022-12-11T09:39:08.789Z,292
2022-12-11T09:40:08.840Z,292
2022-12-11T09:41:08.877Z,315
2022-12-11T09:42:08.812Z,315
2022-12-11T09:43:08.854Z,338
2022-12-11T09:44:08.779Z,315
2022-12-11T09:45:09.077Z,292
2022-12-11T09:46:08.842Z,22
2022-12-11T09:47:08.812Z,315
2022-12-11T09:48:08.837Z,292
2022-12-11T09:49:08.815Z,292
2022-12-11T09:50:08.813Z,338
2022-12-11T09:51:08.816Z,338
2022-12-11T09:52:08.815Z,315
2022-12-11T09:53:08.965Z,22
2022-12-11T09:54:08.833Z,338
2022-12-11T09:55:08.998Z,338
2022-12-11T09:56:08.893Z,315
2022-12-11T09:57:08.860Z,270
2022-12-11T09:58:08.850Z,315
2022-12-11T09:59:08.850Z,338
2022-12-11T10:00:08.858Z,22
2022-12-11T10:01:08.916Z,22
2022-12-11T10:02:08.849Z,68
2022-12-11T10:03:08.912Z,0
2022-12-11T10:04:08.875Z,0
2022-12-11T10:05:09.071Z,45
2022-12-11T10:06:08.917Z,0
2022-12-11T10:07:08.856Z,338
2022-12-11T10:08:08.941Z,68
2022-12-11T10:09:08.893Z,0
2022-12-11T10:10:08.886Z,45
2022-12-11T10:11:08.904Z,22
2022-12-11T10:12:08.903Z,22
2022-12-11T10:13:08.954Z,22
2022-12-11T10:14:08.896Z,45
2022-12-11T10:15:09.151Z,22
2022-12-11T10:16:09.040Z,22
2022-12-11T10:17:08.966Z,45
2022-12-11T10:18:08.946Z,338
2022-12-11T10:19:08.886Z,0
2022-12-11T10:20:08.907Z,68
2022-12-11T10:21:08.888Z,0
2022-12-11T10:22:08.889Z,45
2022-12-11T10:23:08.998Z,0
2022-12-11T10:24:08.906Z,22
2022-12-11T10:25:11.750Z,45
2022-12-11T10:26:08.897Z,22
2022-12-11T10:27:08.915Z,22
2022-12-11T10:28:08.940Z,45
2022-12-11T10:29:08.900Z,22
2022-12-11T10:30:08.899Z,22
2022-12-11T10:31:09.041Z,68
2022-12-11T10:32:08.928Z,45
2022-12-11T10:33:08.954Z,22
2022-12-11T10:34:08.960Z,22
2022-12-11T10:35:09.091Z,22
2022-12-11T10:36:08.947Z,45
2022-12-11T10:37:08.931Z,45
2022-12-11T10:38:08.945Z,68
2022-12-11T10:39:08.915Z,68
2022-12-11T10:40:08.915Z,45
2022-12-11T10:41:08.960Z,45
2022-12-11T10:42:08.958Z,22
2022-12-11T10:43:09.115Z,45
2022-12-11T10:44:08.973Z,45
2022-12-11T10:45:09.144Z,22
2022-12-11T10:46:08.991Z,338
2022-12-11T10:47:09.021Z,22
2022-12-11T10:48:09.019Z,22
2022-12-11T10:49:09.103Z,22
2022-12-11T10:50:08.998Z,0
2022-12-11T10:51:08.962Z,22
2022-12-11T10:52:08.988Z,338
2022-12-11T10:53:08.975Z,22
2022-12-11T10:54:09.109Z,22
2022-12-11T10:55:09.129Z,45
2022-12-11T10:56:08.970Z,68
2022-12-11T10:57:08.965Z,68
2022-12-11T10:58:09.003Z,68
2022-12-11T10:59:08.976Z,338
2022-12-11T11:00:08.988Z,68
2022-12-11T11:01:08.988Z,22
2022-12-11T11:02:09.035Z,68
2022-12-11T11:03:09.053Z,45
2022-12-11T11:04:08.997Z,22
2022-12-11T11:05:09.239Z,22
2022-12-11T11:06:08.958Z,22
2022-12-11T11:07:08.991Z,22
2022-12-11T11:08:09.190Z,22
2022-12-11T11:09:08.993Z,22
2022-12-11T11:10:08.996Z,22
2022-12-11T11:11:09.008Z,22
2022-12-11T11:12:09.003Z,68
2022-12-11T11:13:09.025Z,45
2022-12-11T11:14:09.015Z,22
2022-12-11T11:15:09.143Z,22
2022-12-11T11:16:09.052Z,45
2022-12-11T11:17:09.044Z,68
2022-12-11T11:18:09.065Z,0
2022-12-11T11:19:09.048Z,0
2022-12-11T11:20:09.050Z,0
2022-12-11T11:21:09.085Z,22
2022-12-11T11:22:09.067Z,22
2022-12-11T11:23:09.064Z,22
2022-12-11T11:24:09.085Z,22
2022-12-11T11:25:09.231Z,22
2022-12-11T11:26:09.037Z,22
2022-12-11T11:27:13.601Z,22
2022-12-11T11:28:09.042Z,22
2022-12-11T11:29:09.101Z,292
2022-12-11T11:30:09.036Z,315
2022-12-11T11:31:09.087Z,45
2022-12-11T11:32:09.040Z,68
2022-12-11T11:33:09.090Z,0
2022-12-11T11:34:09.072Z,315
2022-12-11T11:35:09.381Z,315
2022-12-11T11:36:09.084Z,0
2022-12-11T11:37:09.046Z,338
2022-12-11T11:38:09.083Z,22
2022-12-11T11:39:09.095Z,22
2022-12-11T11:40:09.068Z,22
2022-12-11T11:41:14.638Z,22
2022-12-11T11:42:09.088Z,22
2022-12-11T11:43:09.057Z,22
2022-12-11T11:44:09.081Z,22
2022-12-11T11:45:09.544Z,22
2022-12-11T11:46:09.144Z,292
2022-12-11T11:47:09.098Z,338
2022-12-11T11:48:11.407Z,338
2022-12-11T11:49:09.173Z,338
2022-12-11T11:50:09.133Z,338
2022-12-11T11:51:09.109Z,315
2022-12-11T11:52:09.155Z,315
2022-12-11T11:53:09.267Z,315
2022-12-11T11:54:09.223Z,315
2022-12-11T11:55:09.730Z,315
2022-12-11T11:56:09.217Z,315
2022-12-11T11:57:09.214Z,315
2022-12-11T11:58:09.161Z,0
2022-12-11T11:59:09.197Z,0
2022-12-11T12:00:09.159Z,0
2022-12-11T12:01:09.249Z,292
2022-12-11T12:02:09.159Z,292
2022-12-11T12:03:09.320Z,292
2022-12-11T12:04:09.229Z,292
2022-12-11T12:05:09.522Z,292
2022-12-11T12:06:13.527Z,292
2022-12-11T12:07:09.171Z,292
2022-12-11T12:08:09.196Z,292
2022-12-11T12:09:09.221Z,292
2022-12-11T12:10:09.228Z,292
2022-12-11T12:11:09.168Z,292
2022-12-11T12:12:09.187Z,315
2022-12-11T12:13:24.086Z,315
2022-12-11T12:14:22.672Z,338
2022-12-11T12:15:09.423Z,315
2022-12-11T12:16:23.108Z,315
2022-12-11T12:17:09.238Z,315
2022-12-11T12:18:09.175Z,315
2022-12-11T12:19:09.211Z,315
2022-12-11T12:20:09.201Z,315
2022-12-11T12:21:09.251Z,315
2022-12-11T12:22:09.178Z,315
2022-12-11T12:23:09.258Z,292
2022-12-11T12:24:09.207Z,292
2022-12-11T12:25:09.469Z,315
2022-12-11T12:26:09.224Z,315
2022-12-11T12:27:23.010Z,315
2022-12-11T12:28:09.199Z,315
2022-12-11T12:29:09.219Z,338
2022-12-11T12:30:09.179Z,338
2022-12-11T12:31:09.376Z,338
2022-12-11T12:32:09.182Z,338
2022-12-11T12:33:09.195Z,315
2022-12-11T12:34:09.258Z,315
2022-12-11T12:35:09.652Z,315
2022-12-11T12:36:09.198Z,0
2022-12-11T12:37:09.277Z,45
2022-12-11T12:38:09.195Z,68
2022-12-11T12:39:09.227Z,68
2022-12-11T12:40:09.211Z,68
2022-12-11T12:41:09.204Z,68
2022-12-11T12:42:09.199Z,68
2022-12-11T12:43:09.201Z,68
2022-12-11T12:44:09.355Z,68
2022-12-11T12:45:09.600Z,68
2022-12-11T12:46:09.321Z,22
2022-12-11T12:47:09.283Z,22
2022-12-11T12:48:09.242Z,22
2022-12-11T12:49:09.245Z,22
2022-12-11T12:50:09.363Z,22
2022-12-11T12:51:09.295Z,22
2022-12-11T12:52:09.252Z,22
2022-12-11T12:53:09.263Z,22
2022-12-11T12:54:12.419Z,22
2022-12-11T12:55:09.578Z,22
2022-12-11T12:56:09.277Z,22
2022-12-11T12:57:09.290Z,22
2022-12-11T12:58:09.288Z,22
2022-12-11T12:59:09.328Z,22
2022-12-11T13:00:12.971Z,22
2022-12-11T13:01:09.327Z,22
2022-12-11T13:02:09.338Z,22
2022-12-11T13:03:09.275Z,22
2022-12-11T13:04:20.835Z,22
2022-12-11T13:05:09.526Z,22
2022-12-11T13:06:09.327Z,22
2022-12-11T13:07:09.342Z,22
2022-12-11T13:08:09.312Z,22
2022-12-11T13:09:09.329Z,22
2022-12-11T13:10:09.377Z,22
2022-12-11T13:11:09.283Z,22
2022-12-11T13:12:09.286Z,22
2022-12-11T13:13:09.325Z,22
2022-12-11T13:14:09.346Z,22
2022-12-11T13:15:09.581Z,22
2022-12-11T13:16:09.377Z,22
2022-12-11T13:17:09.289Z,22
2022-12-11T13:18:09.352Z,22
2022-12-11T13:19:09.339Z,22
2022-12-11T13:20:09.352Z,22
2022-12-11T13:21:09.297Z,22
2022-12-11T13:22:09.357Z,22
2022-12-11T13:23:09.301Z,22
2022-12-11T13:24:09.310Z,0
2022-12-11T13:25:09.513Z,0
2022-12-11T13:26:09.304Z,0
2022-12-11T13:27:09.347Z,0
2022-12-11T13:28:09.314Z,0
2022-12-11T13:29:09.437Z,0
2022-12-11T13:30:09.313Z,338
2022-12-11T13:31:09.350Z,315
2022-12-11T13:32:09.355Z,315
2022-12-11T13:33:09.315Z,315
2022-12-11T13:34:09.317Z,315
2022-12-11T13:35:09.650Z,315
2022-12-11T13:36:15.079Z,315
2022-12-11T13:37:09.323Z,315
2022-12-11T13:38:09.333Z,315
2022-12-11T13:39:09.330Z,315
2022-12-11T13:40:09.541Z,315
2022-12-11T13:41:09.323Z,315
2022-12-11T13:42:13.139Z,315
2022-12-11T13:43:09.365Z,315
2022-12-11T13:44:09.356Z,315
2022-12-11T13:45:09.574Z,315
2022-12-11T13:46:09.370Z,315
2022-12-11T13:47:09.360Z,315
2022-12-11T13:48:12.806Z,292
2022-12-11T13:49:09.372Z,292
2022-12-11T13:50:09.342Z,270
2022-12-11T13:51:09.473Z,270
2022-12-11T13:52:09.427Z,248
2022-12-11T13:53:09.463Z,270
2022-12-11T13:54:12.674Z,292
2022-12-11T13:55:09.667Z,270
2022-12-11T13:56:09.412Z,270
2022-12-11T13:57:09.628Z,248